Portada
METAR-TAF:

METAR-TAF

Aeroports :

Atirau, Kazakhstan

latitud: 47-07-19N, longitud: 051-49-17E, altitud: -22 m

Observació

L'informe es va fer fa 33 minuts, a les 20:30 UTC
Vent 6 kt del Nord-Est
Temperatura 11°C
Humitat 40%
Pressió 1017 hPa
Visibilitat: 3600 m
fum

METAR: UATG 052030Z 04003MPS 3600 FU NSC 11/M02 Q1017 R32/CLRD70 TEMPO 3000 FU RMK QFE765/1020

Hora: 03:03 (21:03 UTC)

Pronòstic

L'informe es va fer fa 4 hores i 0 minuts, a les 17:03 UTC
Pronòstic vàlid del 05 a les 18 UTC al 06 a les 18 UTC
Vent 6 kt amb direcció variable
Visibilitat 10 km o més
Núvols disperses a una alçada de 3300 ft, Cumulonimbus.
Evolucionant progressivament
l' 06 a les 09 UTC al 06 a les 10 UTC
Vent 14 kt del Sud-Oest

TAF: UATG 051703Z 0518/0618 VRB03MPS 9999 SCT033CB TX21/0612Z TN09/0601Z BECMG 0609/0610 23007MPS

Observacions i pronòstics meteorològics de més de 4000 aeroports (METAR i TAF).

Les estacions disponibles són els punts grocs i vermells al mapa.

Posi el ratolí al punt desitjat per veure el nom de l'estació.

Feu clic per veure les observacions i els pronòstics meteorològics.

Per canviar el mapa: feu clic els botons verds amb una creu de color negre per apropar; al botó verd amb un guió per allunyar la imatge; o en les fletxes verdes per a mapes adjacents.


METAR-TAF: